Time;durP1;ratioP1;P1;durP2;ratioP2;P2;SDS_P1;SDS_P2;PMS_P1;PMS_P2;Temp;Humidity;BMP_temperature;BMP_pressure;BME280_temperature;BME280_humidity;BME280_pressure;Samples;Min_cycle;Max_cycle;Signal;HPM_P1;HPM_P2
2022/09/17 00:00:48;;;;;;;;;;;;;;;13.80;74.11;99967.00;5075888;28;19970;-75
2022/09/17 00:03:15;;;;;;;;;;;;;;;13.65;74.89;99961.94;5087275;28;20341;-75
2022/09/17 00:05:42;;;;;;;;;;;;;;;13.61;75.45;99963.13;5087172;28;19928;-75
2022/09/17 00:08:10;;;;;;;;;;;;;;;13.55;75.99;99966.25;5085786;28;19977;-75
2022/09/17 00:10:39;;;;;;;;;;;;;;;13.62;75.71;99963.97;5087059;28;19943;-75
2022/09/17 00:13:05;;;;;;;;;;;;;;;13.81;75.08;99961.63;5087906;28;20380;-75
2022/09/17 00:15:31;;;;;;;;;;;;;;;13.61;76.28;99967.56;5085839;28;19928;-75
2022/09/17 00:17:58;;;;;;;;;;;;;;;13.51;76.30;99967.44;5085363;28;19924;-75
2022/09/17 00:20:25;;;;;;;;;;;;;;;13.79;75.78;99973.22;5086110;28;19928;-75
2022/09/17 00:22:51;;;;;;;;;;;;;;;13.89;75.20;99964.50;5080948;28;19932;-75
2022/09/17 00:25:18;;;;;;;;;;;;;;;13.95;75.23;99968.44;5087114;28;19946;-75
2022/09/17 00:27:46;;;;;;;;;;;;;;;13.83;76.00;99972.88;5088336;28;19947;-75
2022/09/17 00:30:13;;;;;;;;;;;;;;;13.91;75.41;99965.22;5086399;28;19950;-75
2022/09/17 00:32:39;;;;;;;;;;;;;;;13.63;76.78;99973.56;5086759;28;19981;-75
2022/09/17 00:35:06;;;;;;;;;;;;;;;13.86;75.84;99964.72;5086047;28;19931;-75
2022/09/17 00:37:32;;;;;;;;;;;;;;;13.63;76.68;99979.66;5085532;28;19990;-75
2022/09/17 00:39:58;;;;;;;;;;;;;;;14.04;75.56;99973.81;5087250;28;19978;-75
2022/09/17 00:42:24;;;;;;;;;;;;;;;13.75;76.71;99977.03;5087955;28;20404;-75
2022/09/17 00:44:53;;;;;;;;;;;;;;;13.91;75.89;99980.19;5086532;28;19927;-75
2022/09/17 00:47:22;;;;;;;;;;;;;;;13.97;75.86;99977.06;5088047;28;19924;-75
2022/09/17 00:49:49;;;;;;;;;;;;;;;14.00;75.80;99977.69;5087027;28;19985;-75
2022/09/17 00:52:17;;;;;;;;;;;;;;;14.04;75.99;99981.72;5081556;28;19944;-75
2022/09/17 00:54:46;;;;;;;;;;;;;;;13.74;77.53;99981.50;5086383;28;19924;-75
2022/09/17 00:57:12;;;;;;;;;;;;;;;13.74;77.24;99983.28;5081846;28;19924;-75
2022/09/17 00:59:38;;;;;;;;;;;;;;;13.83;77.46;99985.19;5078007;28;19924;-75
2022/09/17 01:02:06;;;;;;;;;;;;;;;14.04;76.51;99986.19;5087088;28;19973;-75
2022/09/17 01:04:33;;;;;;;;;;;;;;;13.86;77.22;99984.94;5088025;28;19924;-75
2022/09/17 01:07:04;;;;;;;;;;;;;;;13.82;77.81;99996.72;5086188;28;19931;-80
2022/09/17 01:09:38;;;;;;;;;;;;;;;13.99;76.99;99985.69;5088815;28;20411;-81
2022/09/17 01:12:12;;;;;;;;;;;;;;;13.73;78.09;99981.59;5089087;28;19997;-80
2022/09/17 01:14:46;;;;;;;;;;;;;;;13.68;78.56;99992.47;5089750;28;19924;-80
2022/09/17 01:17:19;;;;;;;;;;;;;;;13.79;78.54;99983.75;5088493;28;19928;-80
2022/09/17 01:20:14;;;;;;;;;;;;;;;13.77;78.73;99990.94;5088802;28;19924;-82
2022/09/17 01:22:51;;;;;;;;;;;;;;;14.10;77.63;99983.91;5082520;28;20331;-81
2022/09/17 01:25:23;;;;;;;;;;;;;;;13.93;78.05;99983.56;5087464;28;20372;-81
2022/09/17 01:28:08;;;;;;;;;;;;;;;14.17;77.54;99976.34;5089060;28;20401;-81
2022/09/17 01:30:55;;;;;;;;;;;;;;;13.84;78.81;99989.50;5087965;28;20295;-81
2022/09/17 01:33:27;;;;;;;;;;;;;;;13.99;78.40;99990.97;5081158;28;20387;-81
2022/09/17 01:35:59;;;;;;;;;;;;;;;14.05;78.43;99986.06;5087459;28;19928;-81
2022/09/17 01:38:27;;;;;;;;;;;;;;;14.07;78.78;99989.44;5083663;28;19928;-81
2022/09/17 01:40:57;;;;;;;;;;;;;;;14.37;77.48;99978.31;5078400;28;20493;-82
2022/09/17 01:43:25;;;;;;;;;;;;;;;14.47;77.28;99987.16;5080779;28;20012;-82
2022/09/17 01:45:52;;;;;;;;;;;;;;;14.15;78.38;99983.56;5066794;28;19951;-82
2022/09/17 01:48:19;;;;;;;;;;;;;;;14.34;78.17;99982.91;5066596;28;19924;-82
2022/09/17 01:50:49;;;;;;;;;;;;;;;14.53;76.93;99981.38;5073172;28;19928;-82
2022/09/17 01:53:17;;;;;;;;;;;;;;;14.43;78.05;99987.50;5084706;28;20563;-82
2022/09/17 01:55:48;;;;;;;;;;;;;;;14.06;79.71;99992.16;5086626;28;20361;-81
2022/09/17 01:58:16;;;;;;;;;;;;;;;14.13;79.69;99990.72;5086848;28;20337;-81
2022/09/17 02:00:45;;;;;;;;;;;;;;;14.38;79.24;99992.31;5083476;28;19928;-81
2022/09/17 02:03:15;;;;;;;;;;;;;;;14.25;79.77;99988.94;5085378;28;19950;-81
2022/09/17 02:05:44;;;;;;;;;;;;;;;14.38;78.63;99987.03;5085525;28;19977;-82
2022/09/17 02:08:16;;;;;;;;;;;;;;;14.20;80.26;99993.72;5086904;28;19967;-81
2022/09/17 02:10:44;;;;;;;;;;;;;;;13.89;81.68;99990.84;5085328;28;19977;-80
2022/09/17 02:13:14;;;;;;;;;;;;;;;14.09;81.01;100003.31;5085087;28;19981;-81
2022/09/17 02:15:42;;;;;;;;;;;;;;;14.11;81.12;99992.66;5088636;28;20310;-79
2022/09/17 02:18:11;;;;;;;;;;;;;;;14.00;81.60;99992.66;5107212;28;19973;-79
2022/09/17 02:20:40;;;;;;;;;;;;;;;14.19;80.88;99989.44;5087684;28;19932;-77
2022/09/17 02:23:12;;;;;;;;;;;;;;;14.01;81.81;99994.31;5077893;28;20403;-76
2022/09/17 02:25:42;;;;;;;;;;;;;;;14.19;81.25;99992.88;5083412;28;19974;-78
2022/09/17 02:28:14;;;;;;;;;;;;;;;13.96;81.92;100009.66;5087370;28;19925;-78
2022/09/17 02:30:41;;;;;;;;;;;;;;;13.86;84.72;100017.41;5085817;28;19928;-77
2022/09/17 02:33:09;;;;;;;;;;;;;;;14.49;82.45;100010.75;5084672;28;19924;-76
2022/09/17 02:35:36;;;;;;;;;;;;;;;14.40;83.80;100003.59;5085310;28;19928;-75
2022/09/17 02:38:03;;;;;;;;;;;;;;;14.70;82.74;100008.22;5085310;28;20019;-76
2022/09/17 02:40:32;;;;;;;;;;;;;;;14.63;82.67;100000.78;5085029;28;20379;-76
2022/09/17 02:43:08;;;;;;;;;;;;;;;14.33;84.35;100005.84;5084667;28;19928;-76
2022/09/17 02:45:45;;;;;;;;;;;;;;;14.22;84.42;99995.31;5084249;28;19924;-76
2022/09/17 02:48:24;;;;;;;;;;;;;;;14.35;84.40;99996.03;5084831;28;20430;-76
2022/09/17 02:51:00;;;;;;;;;;;;;;;14.46;84.19;100001.28;5084532;28;19932;-76
2022/09/17 02:53:34;;;;;;;;;;;;;;;14.29;84.28;99999.13;5081521;28;20460;-77
2022/09/17 02:56:06;;;;;;;;;;;;;;;14.48;83.32;100014.38;5090953;28;19924;-77
2022/09/17 02:58:38;;;;;;;;;;;;;;;14.25;84.09;100010.88;5086654;28;20011;-78
2022/09/17 03:01:07;;;;;;;;;;;;;;;14.37;83.10;100004.69;5084785;28;19924;-78
2022/09/17 03:03:36;;;;;;;;;;;;;;;14.00;84.81;100016.38;5084791;28;19924;-78
2022/09/17 03:06:02;;;;;;;;;;;;;;;14.13;84.37;100014.47;5070686;28;19937;-78
2022/09/17 03:08:29;;;;;;;;;;;;;;;13.82;85.99;100025.69;5081440;28;19932;-78
2022/09/17 03:10:55;;;;;;;;;;;;;;;13.74;86.22;100012.25;5083430;28;19931;-78
2022/09/17 03:13:21;;;;;;;;;;;;;;;13.80;86.74;100017.91;5084196;28;19924;-78
2022/09/17 03:15:49;;;;;;;;;;;;;;;13.92;85.21;100022.25;5085622;28;19932;-78
2022/09/17 03:18:15;;;;;;;;;;;;;;;14.03;84.16;100021.41;5084357;28;19924;-77
2022/09/17 03:20:41;;;;;;;;;;;;;;;14.32;82.98;100014.72;5085920;28;19924;-78
2022/09/17 03:23:08;;;;;;;;;;;;;;;13.99;84.02;100020.81;5073793;28;20046;-79
2022/09/17 03:25:34;;;;;;;;;;;;;;;13.86;84.24;100021.84;5081173;28;19988;-79
2022/09/17 03:28:00;;;;;;;;;;;;;;;13.81;84.13;100013.47;5085442;28;19928;-79
2022/09/17 03:30:27;;;;;;;;;;;;;;;13.94;83.35;100020.31;5083865;28;19928;-78
2022/09/17 03:32:54;;;;;;;;;;;;;;;13.93;82.91;100025.72;5082972;28;20425;-78
2022/09/17 03:35:21;;;;;;;;;;;;;;;14.02;81.96;100023.19;5085503;28;19924;-79
2022/09/17 03:37:47;;;;;;;;;;;;;;;13.87;82.51;100024.38;5088388;28;20368;-78
2022/09/17 03:40:13;;;;;;;;;;;;;;;13.97;82.07;100024.50;5080928;28;19990;-78
2022/09/17 03:42:39;;;;;;;;;;;;;;;13.94;83.16;100020.31;5087707;28;19943;-78
2022/09/17 03:45:06;;;;;;;;;;;;;;;14.02;82.09;100025.00;5087885;28;19971;-78
2022/09/17 03:47:33;;;;;;;;;;;;;;;13.59;84.06;100030.91;5084744;28;19924;-78
2022/09/17 03:50:00;;;;;;;;;;;;;;;13.39;84.81;100034.19;5087614;28;19924;-78
2022/09/17 03:52:27;;;;;;;;;;;;;;;13.70;83.61;100040.63;5094478;28;19925;-78
2022/09/17 03:54:53;;;;;;;;;;;;;;;14.06;81.55;100035.19;5087290;28;19924;-78
2022/09/17 03:57:19;;;;;;;;;;;;;;;13.89;81.74;100040.94;5089380;28;19932;-78
2022/09/17 03:59:45;;;;;;;;;;;;;;;13.89;81.49;100032.19;5087336;28;19928;-78
2022/09/17 04:02:12;;;;;;;;;;;;;;;13.63;82.65;100050.78;5089272;28;19928;-78
2022/09/17 04:04:38;;;;;;;;;;;;;;;13.28;84.40;100046.47;5087554;28;19928;-78
2022/09/17 04:07:05;;;;;;;;;;;;;;;13.55;83.20;100053.16;5090757;28;19927;-78
2022/09/17 04:09:32;;;;;;;;;;;;;;;13.27;84.98;100061.41;5094483;28;20610;-78
2022/09/17 04:11:58;;;;;;;;;;;;;;;13.67;82.37;100055.84;5088016;28;19925;-78
2022/09/17 04:14:24;;;;;;;;;;;;;;;13.26;83.94;100059.75;5086626;28;19924;-78
2022/09/17 04:16:51;;;;;;;;;;;;;;;13.43;83.94;100056.72;5087880;28;19993;-78
2022/09/17 04:19:17;;;;;;;;;;;;;;;13.20;85.25;100059.34;5086859;28;19928;-78
2022/09/17 04:21:43;;;;;;;;;;;;;;;13.08;85.43;100080.31;5087278;28;19924;-78
2022/09/17 04:24:11;;;;;;;;;;;;;;;13.25;84.87;100060.69;5095090;28;19980;-78
2022/09/17 04:26:37;;;;;;;;;;;;;;;13.23;84.99;100070.50;5086467;28;19924;-78
2022/09/17 04:29:03;;;;;;;;;;;;;;;13.33;84.65;100062.78;5085240;28;19963;-77
2022/09/17 04:31:29;;;;;;;;;;;;;;;13.25;85.04;100068.59;5088626;28;19924;-76
2022/09/17 04:33:56;;;;;;;;;;;;;;;13.42;84.20;100067.34;5085252;28;19932;-76
2022/09/17 04:36:22;;;;;;;;;;;;;;;13.61;82.57;100071.13;5085863;28;19974;-76
2022/09/17 04:38:48;;;;;;;;;;;;;;;13.37;83.75;100069.50;5086986;28;20356;-76
2022/09/17 04:41:16;;;;;;;;;;;;;;;13.40;83.16;100077.16;5096100;28;20442;-76
2022/09/17 04:43:42;;;;;;;;;;;;;;;13.56;82.53;100081.16;5087053;28;19928;-76
2022/09/17 04:46:08;;;;;;;;;;;;;;;13.81;81.12;100077.56;5088540;28;19973;-76
2022/09/17 04:48:35;;;;;;;;;;;;;;;13.83;80.39;100080.91;5085452;28;19981;-76
2022/09/17 04:51:01;;;;;;;;;;;;;;;13.78;80.21;100082.22;5084952;28;19924;-76
2022/09/17 04:53:27;;;;;;;;;;;;;;;13.52;80.41;100087.66;5082067;28;19932;-76
2022/09/17 04:55:54;;;;;;;;;;;;;;;13.63;80.13;100085.03;5079153;28;19935;-76
2022/09/17 04:58:21;;;;;;;;;;;;;;;13.76;79.98;100089.38;5090552;28;20023;-76
2022/09/17 05:00:48;;;;;;;;;;;;;;;13.91;79.64;100090.88;5092550;28;19936;-77
2022/09/17 05:03:14;;;;;;;;;;;;;;;14.01;78.65;100089.22;5086295;28;20457;-77
2022/09/17 05:05:40;;;;;;;;;;;;;;;14.08;78.06;100096.53;5088351;28;20333;-77
2022/09/17 05:08:07;;;;;;;;;;;;;;;13.65;80.13;100096.31;5081276;28;20320;-77
2022/09/17 05:10:33;;;;;;;;;;;;;;;13.91;80.15;100098.78;5085594;28;20026;-77
2022/09/17 05:12:59;;;;;;;;;;;;;;;13.93;79.96;100102.97;5088415;28;19924;-78
2022/09/17 05:15:27;;;;;;;;;;;;;;;13.80;80.70;100107.50;5106454;28;19924;-78
2022/09/17 05:17:53;;;;;;;;;;;;;;;13.47;81.66;100112.63;5102370;28;20391;-78
2022/09/17 05:20:20;;;;;;;;;;;;;;;13.55;81.77;100102.38;5086433;28;19924;-77
2022/09/17 05:22:47;;;;;;;;;;;;;;;13.74;80.21;100109.75;5085016;28;19974;-78
2022/09/17 05:25:14;;;;;;;;;;;;;;;13.63;80.23;100116.63;5084308;28;20326;-77
2022/09/17 05:27:40;;;;;;;;;;;;;;;13.75;80.10;100116.69;5086370;28;19924;-77
2022/09/17 05:30:07;;;;;;;;;;;;;;;13.93;79.18;100110.06;5087466;28;19928;-77
2022/09/17 05:32:35;;;;;;;;;;;;;;;13.85;78.95;100108.00;5085111;28;19947;-76
2022/09/17 05:35:01;;;;;;;;;;;;;;;13.73;79.71;100110.69;5085828;28;19924;-77
2022/09/17 05:37:27;;;;;;;;;;;;;;;13.70;79.61;100106.50;5085639;28;19924;-77
2022/09/17 05:39:54;;;;;;;;;;;;;;;13.57;79.76;100111.84;5081038;28;19958;-78
2022/09/17 05:42:20;;;;;;;;;;;;;;;13.39;79.97;100117.59;5082508;28;20318;-78
2022/09/17 05:44:46;;;;;;;;;;;;;;;13.63;78.83;100114.00;5085985;28;20427;-78
2022/09/17 05:47:12;;;;;;;;;;;;;;;13.86;77.27;100112.28;5086297;28;19928;-78
2022/09/17 05:49:40;;;;;;;;;;;;;;;13.61;77.63;100118.56;5091231;28;19977;-78
2022/09/17 05:52:06;;;;;;;;;;;;;;;13.57;77.46;100117.09;5100359;28;19928;-78
2022/09/17 05:54:33;;;;;;;;;;;;;;;13.45;77.49;100112.72;5083850;28;19977;-78
2022/09/17 05:57:00;;;;;;;;;;;;;;;13.59;76.90;100127.53;5084600;28;19943;-79
2022/09/17 05:59:26;;;;;;;;;;;;;;;13.59;76.57;100128.38;5084894;28;19924;-78
2022/09/17 06:01:53;;;;;;;;;;;;;;;13.64;76.75;100128.00;5075996;28;19978;-79
2022/09/17 06:04:19;;;;;;;;;;;;;;;14.32;74.22;100130.75;5094331;28;19972;-78
2022/09/17 06:06:47;;;;;;;;;;;;;;;15.47;70.41;100126.84;5086071;28;19928;-78
2022/09/17 06:09:13;;;;;;;;;;;;;;;15.84;67.61;100126.50;5085293;28;19928;-78
2022/09/17 06:11:39;;;;;;;;;;;;;;;15.29;69.94;100138.06;5083950;28;19923;-78
2022/09/17 06:14:06;;;;;;;;;;;;;;;14.87;70.16;100132.59;5086440;28;19924;-78
2022/09/17 06:16:32;;;;;;;;;;;;;;;14.60;71.83;100134.75;5092111;28;20037;-78
2022/09/17 06:18:58;;;;;;;;;;;;;;;14.32;72.54;100146.56;5088492;28;20625;-77
2022/09/17 06:21:24;;;;;;;;;;;;;;;13.99;73.87;100157.88;5095947;28;19928;-78
2022/09/17 06:23:52;;;;;;;;;;;;;;;14.46;72.69;100154.28;5090168;28;19954;-78
2022/09/17 06:26:19;;;;;;;;;;;;;;;14.28;72.76;100147.75;5084749;28;19940;-81
2022/09/17 06:28:45;;;;;;;;;;;;;;;13.82;74.06;100146.91;5085737;28;19924;-79
2022/09/17 06:31:12;;;;;;;;;;;;;;;14.41;72.75;100155.63;5086900;28;19988;-80
2022/09/17 06:33:39;;;;;;;;;;;;;;;14.66;71.72;100149.28;5085095;28;19924;-77
2022/09/17 06:36:06;;;;;;;;;;;;;;;14.18;72.83;100164.41;5085650;28;19970;-78
2022/09/17 06:38:33;;;;;;;;;;;;;;;14.17;72.40;100153.00;5089026;28;20364;-79
2022/09/17 06:41:01;;;;;;;;;;;;;;;14.23;73.16;100159.63;5089550;28;19924;-78
2022/09/17 06:43:28;;;;;;;;;;;;;;;14.08;72.50;100151.06;5091295;28;20366;-79
2022/09/17 06:45:54;;;;;;;;;;;;;;;14.35;72.61;100150.78;5111130;28;19912;-79
2022/09/17 06:48:20;;;;;;;;;;;;;;;14.03;72.25;100148.78;5109523;28;19938;-79
2022/09/17 06:50:47;;;;;;;;;;;;;;;13.64;72.69;100149.94;5109353;28;19924;-79
2022/09/17 06:53:13;;;;;;;;;;;;;;;13.78;73.62;100166.53;5111432;28;19988;-78
2022/09/17 06:55:39;;;;;;;;;;;;;;;14.03;72.79;100155.84;5110504;28;19912;-77
2022/09/17 06:58:07;;;;;;;;;;;;;;;14.22;72.00;100160.56;5110729;28;19924;-77
2022/09/17 07:00:34;;;;;;;;;;;;;;;13.69;73.27;100161.94;5080924;28;20276;-77
2022/09/17 07:03:01;;;;;;;;;;;;;;;13.75;72.89;100161.47;5094564;28;20487;-77
2022/09/17 07:05:28;;;;;;;;;;;;;;;13.82;73.21;100165.38;5099141;28;19973;-78
2022/09/17 07:07:54;;;;;;;;;;;;;;;13.60;73.41;100174.81;5090526;28;20380;-78
2022/09/17 07:10:22;;;;;;;;;;;;;;;13.62;73.56;100178.19;5105063;28;19977;-78
2022/09/17 07:12:48;;;;;;;;;;;;;;;13.50;74.96;100173.81;5091273;28;19931;-76
2022/09/17 07:15:16;;;;;;;;;;;;;;;13.64;73.88;100176.28;5093267;28;19928;-76
2022/09/17 07:17:43;;;;;;;;;;;;;;;13.53;74.45;100183.28;5091100;28;20337;-77
2022/09/17 07:20:10;;;;;;;;;;;;;;;13.90;73.70;100184.06;5090492;28;19974;-77
2022/09/17 07:22:36;;;;;;;;;;;;;;;13.89;73.57;100180.59;5092094;28;19973;-77
2022/09/17 07:25:03;;;;;;;;;;;;;;;14.01;73.27;100176.19;5094707;28;19937;-77
2022/09/17 07:27:29;;;;;;;;;;;;;;;14.27;73.12;100172.44;5112808;28;19950;-77
2022/09/17 07:29:56;;;;;;;;;;;;;;;14.86;71.11;100167.88;5099022;28;19935;-77
2022/09/17 07:32:24;;;;;;;;;;;;;;;14.24;72.47;100170.03;5104408;28;20372;-76
2022/09/17 07:34:50;;;;;;;;;;;;;;;14.51;71.70;100167.13;5095224;28;19924;-76
2022/09/17 07:37:17;;;;;;;;;;;;;;;14.53;71.67;100176.59;5114452;28;19981;-76
2022/09/17 07:39:43;;;;;;;;;;;;;;;14.65;72.00;100179.25;5109415;28;19989;-76
2022/09/17 07:42:09;;;;;;;;;;;;;;;14.86;70.21;100175.78;5105617;28;20342;-76
2022/09/17 07:44:35;;;;;;;;;;;;;;;15.02;70.16;100170.16;5090997;28;19989;-76
2022/09/17 07:47:02;;;;;;;;;;;;;;;14.80;70.33;100178.06;5072627;28;19970;-76
2022/09/17 07:49:30;;;;;;;;;;;;;;;14.79;70.45;100187.78;5092057;28;19928;-76
2022/09/17 07:51:56;;;;;;;;;;;;;;;15.01;69.85;100181.66;5094337;28;19924;-76
2022/09/17 07:54:22;;;;;;;;;;;;;;;15.22;69.56;100181.78;5104086;28;20334;-76
2022/09/17 07:56:48;;;;;;;;;;;;;;;15.19;69.67;100195.22;5101014;28;19923;-76
2022/09/17 07:59:15;;;;;;;;;;;;;;;15.42;69.50;100186.28;5110571;28;19932;-77
2022/09/17 08:01:41;;;;;;;;;;;;;;;15.21;69.03;100166.88;5092812;28;19924;-77
2022/09/17 08:04:07;;;;;;;;;;;;;;;14.78;71.16;100188.72;5105263;28;19982;-77
2022/09/17 08:06:38;;;;;;;;;;;;;;;14.80;70.74;100186.00;5099461;28;20282;-77
2022/09/17 08:09:05;;;;;;;;;;;;;;;14.94;69.76;100185.75;5101539;28;19924;-77
2022/09/17 08:11:32;;;;;;;;;;;;;;;15.14;70.32;100187.66;5092809;28;19936;-77
2022/09/17 08:13:58;;;;;;;;;;;;;;;15.30;68.94;100182.00;5090072;28;19924;-77
2022/09/17 08:16:25;;;;;;;;;;;;;;;14.86;69.69;100188.13;5088495;28;19971;-77
2022/09/17 08:18:54;;;;;;;;;;;;;;;14.55;71.81;100195.81;5089127;28;19924;-77
2022/09/17 08:21:20;;;;;;;;;;;;;;;14.34;72.31;100192.16;5088267;28;19924;-77
2022/09/17 08:23:48;;;;;;;;;;;;;;;14.66;70.86;100191.50;5097158;28;19923;-77
2022/09/17 08:26:15;;;;;;;;;;;;;;;14.58;70.98;100192.94;5088017;28;19927;-77
2022/09/17 08:28:44;;;;;;;;;;;;;;;14.93;69.65;100189.34;5083802;28;19947;-77
2022/09/17 08:31:10;;;;;;;;;;;;;;;15.00;69.11;100182.66;5088379;28;19924;-78
2022/09/17 08:33:37;;;;;;;;;;;;;;;15.13;70.11;100187.78;5100098;28;19928;-76
2022/09/17 08:36:04;;;;;;;;;;;;;;;15.16;68.33;100183.09;5087868;28;19928;-76
2022/09/17 08:38:32;;;;;;;;;;;;;;;15.32;67.12;100180.91;5093925;28;19924;-76
2022/09/17 08:41:06;;;;;;;;;;;;;;;15.56;67.85;100178.97;5094920;28;20323;-76
2022/09/17 08:43:34;;;;;;;;;;;;;;;15.71;65.71;100179.50;5098182;28;19925;-76
2022/09/17 08:46:00;;;;;;;;;;;;;;;15.66;64.48;100188.81;5085569;28;19977;-76
2022/09/17 08:48:31;;;;;;;;;;;;;;;15.51;65.28;100189.09;5086907;28;19950;-76
2022/09/17 08:50:57;;;;;;;;;;;;;;;15.83;64.72;100201.47;5086944;28;20338;-76
2022/09/17 08:53:32;;;;;;;;;;;;;;;16.17;62.79;100200.38;5100650;28;19988;-76
2022/09/17 08:56:01;;;;;;;;;;;;;;;16.56;61.56;100206.78;5106345;28;19924;-76
2022/09/17 08:58:39;;;;;;;;;;;;;;;16.38;61.72;100197.72;5105121;28;19930;-76
2022/09/17 09:01:11;;;;;;;;;;;;;;;16.34;61.29;100197.16;5088333;28;19924;-76
2022/09/17 09:03:44;;;;;;;;;;;;;;;16.49;60.41;100201.16;5085798;28;19924;-76
2022/09/17 09:06:11;;;;;;;;;;;;;;;17.04;60.48;100201.72;5087640;28;19924;-77
2022/09/17 09:08:42;;;;;;;;;;;;;;;17.24;58.83;100198.19;5093166;28;19981;-76
2022/09/17 09:11:13;;;;;;;;;;;;;;;17.41;57.22;100204.66;5098395;28;19943;-76
2022/09/17 09:13:42;;;;;;;;;;;;;;;17.20;57.70;100207.38;5084653;28;20020;-73
2022/09/17 09:16:13;;;;;;;;;;;;;;;17.26;57.54;100206.84;5087094;28;20547;-72
2022/09/17 09:18:40;;;;;;;;;;;;;;;17.61;56.50;100200.28;5086350;28;19973;-73
2022/09/17 09:21:15;;;;;;;;;;;;;;;17.52;56.44;100193.94;5089866;28;19928;-73
2022/09/17 09:23:45;;;;;;;;;;;;;;;17.37;56.09;100204.09;5090728;28;20291;-72
2022/09/17 09:26:16;;;;;;;;;;;;;;;17.81;55.44;100202.00;5088576;28;19924;-72
2022/09/17 09:28:52;;;;;;;;;;;;;;;17.79;53.55;100203.91;5086848;28;20376;-73
2022/09/17 09:31:34;;;;;;;;;;;;;;;17.56;54.25;100211.25;5087030;28;20372;-73
2022/09/17 09:34:01;;;;;;;;;;;;;;;17.35;54.36;100215.81;5085507;28;20341;-72
2022/09/17 09:36:29;;;;;;;;;;;;;;;17.21;55.40;100216.19;5085684;28;19924;-73
2022/09/17 09:39:00;;;;;;;;;;;;;;;17.57;55.15;100215.59;5085829;28;19924;-73
2022/09/17 09:41:30;;;;;;;;;;;;;;;18.55;52.64;100210.22;5069643;28;20392;-73
2022/09/17 09:44:01;;;;;;;;;;;;;;;18.75;50.75;100209.19;5066269;28;19929;-72
2022/09/17 09:46:33;;;;;;;;;;;;;;;19.17;50.35;100221.06;5085253;28;20379;-72
2022/09/17 09:49:06;;;;;;;;;;;;;;;19.16;49.09;100213.22;5084137;28;19977;-72
2022/09/17 09:51:39;;;;;;;;;;;;;;;19.42;47.96;100209.78;5095455;28;19969;-72
2022/09/17 09:54:09;;;;;;;;;;;;;;;20.15;46.77;100210.50;5085488;28;19932;-72
2022/09/17 09:56:42;;;;;;;;;;;;;;;19.70;45.92;100196.44;5106523;28;20482;-72
2022/09/17 09:59:11;;;;;;;;;;;;;;;19.35;47.81;100211.31;5106315;28;19928;-72
2022/09/17 10:01:39;;;;;;;;;;;;;;;19.57;48.01;100211.94;5104179;28;19963;-72
2022/09/17 10:04:11;;;;;;;;;;;;;;;19.94;46.61;100212.66;5105552;28;20361;-72
2022/09/17 10:06:38;;;;;;;;;;;;;;;20.02;46.34;100210.06;5084322;28;20281;-72
2022/09/17 10:09:12;;;;;;;;;;;;;;;20.65;46.68;100207.28;5096024;28;20342;-72
2022/09/17 10:11:39;;;;;;;;;;;;;;;20.91;42.85;100208.09;5089115;28;20009;-72
2022/09/17 10:14:15;;;;;;;;;;;;;;;20.51;43.28;100216.66;5090226;28;19935;-72
2022/09/17 10:16:41;;;;;;;;;;;;;;;19.86;45.79;100217.88;5084208;28;20324;-72
2022/09/17 10:19:13;;;;;;;;;;;;;;;19.53;44.51;100205.22;5084653;28;19996;-72
2022/09/17 10:21:39;;;;;;;;;;;;;;;19.44;46.76;100214.94;5085919;28;20035;-72
2022/09/17 10:24:15;;;;;;;;;;;;;;;19.58;43.53;100219.78;5083976;28;19945;-72
2022/09/17 10:26:41;;;;;;;;;;;;;;;19.80;43.11;100219.34;5084227;28;20342;-72
2022/09/17 10:29:11;;;;;;;;;;;;;;;19.93;43.26;100208.31;5086849;28;19928;-72
2022/09/17 10:31:48;;;;;;;;;;;;;;;19.47;42.67;100216.47;5085308;28;20295;-72
2022/09/17 10:34:19;;;;;;;;;;;;;;;19.51;42.67;100201.91;5084678;28;20932;-72
2022/09/17 10:36:46;;;;;;;;;;;;;;;19.20;43.50;100215.44;5083268;28;19935;-72
2022/09/17 10:39:27;;;;;;;;;;;;;;;19.74;43.08;100203.13;5088594;28;20013;-72
2022/09/17 10:41:54;;;;;;;;;;;;;;;19.72;42.32;100210.44;5070349;28;19928;-72
2022/09/17 10:44:22;;;;;;;;;;;;;;;19.65;42.13;100188.09;5089115;28;19956;-72
2022/09/17 10:46:50;;;;;;;;;;;;;;;19.89;42.21;100201.63;5088806;28;20295;-72
2022/09/17 10:49:22;;;;;;;;;;;;;;;20.02;45.40;100191.44;5089086;28;19986;-72
2022/09/17 10:51:49;;;;;;;;;;;;;;;20.85;42.33;100201.56;5092345;28;19924;-72
2022/09/17 10:54:21;;;;;;;;;;;;;;;20.41;40.83;100202.59;5108335;28;19924;-72
2022/09/17 10:56:51;;;;;;;;;;;;;;;21.15;44.87;100197.59;5110031;28;19932;-72
2022/09/17 10:59:26;;;;;;;;;;;;;;;21.76;39.46;100199.13;5106703;28;19924;-72
2022/09/17 11:02:00;;;;;;;;;;;;;;;21.79;38.29;100188.97;5109890;28;19927;-72
2022/09/17 11:04:30;;;;;;;;;;;;;;;22.36;37.57;100183.66;5107639;28;20302;-72
2022/09/17 11:07:06;;;;;;;;;;;;;;;21.20;37.62;100184.63;5088191;28;19950;-72
2022/09/17 11:09:40;;;;;;;;;;;;;;;20.96;40.30;100203.13;5095663;28;19989;-72
2022/09/17 11:12:16;;;;;;;;;;;;;;;21.02;39.80;100199.00;5082686;28;19928;-72
2022/09/17 11:14:50;;;;;;;;;;;;;;;21.18;40.11;100196.41;5088169;28;19943;-72
2022/09/17 11:17:29;;;;;;;;;;;;;;;21.08;39.11;100201.84;5088905;28;19924;-72
2022/09/17 11:19:59;;;;;;;;;;;;;;;20.15;38.72;100207.84;5081199;28;19960;-72
2022/09/17 11:22:30;;;;;;;;;;;;;;;18.75;39.78;100209.19;5086952;28;19993;-72
2022/09/17 11:25:20;;;;;;;;;;;;;;;18.23;41.13;100205.19;5088405;28;19928;-72
2022/09/17 11:27:53;;;;;;;;;;;;;;;17.55;44.54;100200.78;5085164;28;19924;-72
2022/09/17 11:30:20;;;;;;;;;;;;;;;17.74;44.01;100203.47;5087467;28;19928;-72
2022/09/17 11:32:59;;;;;;;;;;;;;;;17.80;44.03;100202.94;5085674;28;19924;-69
2022/09/17 11:35:27;;;;;;;;;;;;;;;18.57;44.88;100193.16;5081952;28;19924;-69
2022/09/17 11:37:56;;;;;;;;;;;;;;;18.61;43.46;100185.75;5088844;28;19928;-69
2022/09/17 11:40:25;;;;;;;;;;;;;;;18.87;43.40;100171.69;5087080;28;19947;-69
2022/09/17 11:42:54;;;;;;;;;;;;;;;19.46;42.77;100172.25;5103626;28;19959;-69
2022/09/17 11:45:25;;;;;;;;;;;;;;;19.18;41.04;100164.25;5107604;28;20365;-69
2022/09/17 11:47:55;;;;;;;;;;;;;;;19.54;40.36;100175.00;5100778;28;19931;-69
2022/09/17 11:50:25;;;;;;;;;;;;;;;19.74;39.39;100165.88;5087562;28;19954;-69
2022/09/17 11:53:00;;;;;;;;;;;;;;;19.41;39.58;100162.91;5087528;28;19924;-69
2022/09/17 11:55:30;;;;;;;;;;;;;;;19.14;40.69;100165.53;5099974;27;19972;-69
2022/09/17 11:57:59;;;;;;;;;;;;;;;19.79;41.42;100152.97;5106320;28;19935;-69
2022/09/17 12:00:29;;;;;;;;;;;;;;;20.49;39.88;100153.88;5091722;28;19924;-69
2022/09/17 12:02:58;;;;;;;;;;;;;;;20.64;40.46;100153.16;5086517;28;19977;-69
2022/09/17 12:05:27;;;;;;;;;;;;;;;20.59;39.26;100151.94;5079622;28;19924;-69
2022/09/17 12:07:56;;;;;;;;;;;;;;;21.10;37.68;100151.06;5088865;28;19981;-70
2022/09/17 12:10:34;;;;;;;;;;;;;;;21.28;39.35;100155.31;5099276;28;20011;-69
2022/09/17 12:13:05;;;;;;;;;;;;;;;21.59;36.42;100154.72;5086796;28;20571;-69
2022/09/17 12:15:35;;;;;;;;;;;;;;;21.69;36.45;100168.75;5087159;28;19960;-69
2022/09/17 12:18:07;;;;;;;;;;;;;;;21.40;36.23;100163.00;5084580;28;19924;-70
2022/09/17 12:20:36;;;;;;;;;;;;;;;21.60;34.85;100156.38;5086228;28;19963;-70
2022/09/17 12:23:05;;;;;;;;;;;;;;;21.79;34.47;100148.09;5102032;28;19924;-70
2022/09/17 12:25:33;;;;;;;;;;;;;;;21.13;36.86;100151.59;5106181;28;19947;-70
2022/09/17 12:28:02;;;;;;;;;;;;;;;20.35;36.25;100150.81;5088340;28;20340;-70
2022/09/17 12:30:31;;;;;;;;;;;;;;;19.90;37.24;100150.91;5084663;28;20440;-70
2022/09/17 12:33:02;;;;;;;;;;;;;;;19.23;39.06;100146.03;5088315;28;19925;-70
2022/09/17 12:35:33;;;;;;;;;;;;;;;18.69;38.79;100152.19;5085788;28;20409;-69
2022/09/17 12:38:08;;;;;;;;;;;;;;;18.52;39.77;100160.03;5078148;28;19924;-70
2022/09/17 12:40:35;;;;;;;;;;;;;;;18.65;39.32;100155.25;5084536;28;19936;-69
2022/09/17 12:43:09;;;;;;;;;;;;;;;18.53;41.60;100167.03;5087341;28;19924;-70
2022/09/17 12:45:42;;;;;;;;;;;;;;;18.56;41.24;100174.69;5087617;28;19924;-69